Weather at Eloy Municipal Airport

Public forecast

Using degrees Fahrenheit for public forecast. Weather courtesy of forecast.io.

Closest aviation weather report (METAR) to Eloy Municipal Airport

Report is more than 6 hours old.

Closest report is Coolidge Municipal Airport, 11.2 nm (20.7 km) NE. Retrieved 2020/07/23 15:10 UTC (4 months ago):

KP08 231510Z AUTO 14017G22KT 10SM VCTS CLR 27/19 A2993 RMK LTNG DSNT SE-S

Closest aviation forecast (TAF) to Eloy Municipal Airport

Closest forecast is Phoenix-Mesa-Gateway Airport, 30.3 nm (56.0 km) N. Retrieved 2020/11/29 12:22 UTC (4 hours ago):

TAF KIWA 291120Z 2912/3012 12006KT P6SM SKC FM291900 30005KT P6SM SKC FM300300 11006KT P6SM SKC FM300900 10008KT P6SM FEW250 WS015/11040KT